createdAt,value
2023-02-05T00:00:51.699Z,4.40
2023-02-05T00:03:20.129Z,4.40
2023-02-05T00:05:48.286Z,4.40
2023-02-05T00:08:18.135Z,4.30
2023-02-05T00:10:53.112Z,4.20
2023-02-05T00:13:21.679Z,4.10
2023-02-05T00:15:52.642Z,4.00
2023-02-05T00:18:21.262Z,3.80
2023-02-05T00:20:49.740Z,3.80
2023-02-05T00:23:19.656Z,3.80
2023-02-05T00:25:48.164Z,3.80
2023-02-05T00:28:16.553Z,3.70
2023-02-05T00:30:45.514Z,3.70
2023-02-05T00:33:13.610Z,3.70
2023-02-05T00:35:44.047Z,3.70
2023-02-05T00:38:13.011Z,3.70
2023-02-05T00:40:42.543Z,3.80
2023-02-05T00:43:12.499Z,3.80
2023-02-05T00:45:40.714Z,3.90
2023-02-05T00:48:09.303Z,3.90
2023-02-05T00:50:38.912Z,3.90
2023-02-05T00:53:07.081Z,4.00
2023-02-05T00:55:39.383Z,4.00
2023-02-05T00:58:09.171Z,3.90
2023-02-05T01:00:37.777Z,3.80
2023-02-05T01:03:06.159Z,3.80
2023-02-05T01:05:36.328Z,3.90
2023-02-05T01:08:06.913Z,4.00
2023-02-05T01:10:37.662Z,4.10
2023-02-05T01:13:06.952Z,4.20
2023-02-05T01:15:36.761Z,4.20
2023-02-05T01:18:06.528Z,4.10
2023-02-05T01:20:38.029Z,4.10
2023-02-05T01:23:07.706Z,4.00
2023-02-05T01:25:36.457Z,4.00
2023-02-05T01:28:07.154Z,3.90
2023-02-05T01:30:37.558Z,3.80
2023-02-05T01:33:06.769Z,3.80
2023-02-05T01:35:35.378Z,3.80
2023-02-05T01:38:03.796Z,3.70
2023-02-05T01:40:32.542Z,3.80
2023-02-05T01:43:00.623Z,3.70
2023-02-05T01:46:25.289Z,3.60
2023-02-05T01:48:58.929Z,3.50
2023-02-05T01:51:31.635Z,3.50
2023-02-05T01:54:01.104Z,3.60
2023-02-05T01:56:35.127Z,3.60
2023-02-05T01:59:09.688Z,3.60
2023-02-05T02:01:41.855Z,3.50
2023-02-05T02:04:12.822Z,3.30
2023-02-05T02:06:41.353Z,3.30
2023-02-05T02:09:10.699Z,3.30
2023-02-05T02:11:43.502Z,3.80
2023-02-05T02:14:16.542Z,3.10
2023-02-05T02:16:47.096Z,2.90
2023-02-05T02:19:34.315Z,3.00
2023-02-05T02:22:44.918Z,3.00
2023-02-05T02:25:51.682Z,3.10
2023-02-05T02:28:29.702Z,3.10
2023-02-05T02:31:06.994Z,3.00
2023-02-05T02:33:45.860Z,2.90
2023-02-05T02:36:26.239Z,2.80
2023-02-05T02:39:02.903Z,2.80
2023-02-05T02:41:43.341Z,2.80
2023-02-05T02:44:20.585Z,2.80
2023-02-05T02:46:55.314Z,2.80
2023-02-05T02:49:31.965Z,2.70
2023-02-05T02:52:07.052Z,2.70
2023-02-05T02:54:37.874Z,2.80
2023-02-05T02:57:30.205Z,2.80
2023-02-05T03:06:09.241Z,3.00
2023-02-05T03:08:48.216Z,3.10
2023-02-05T03:11:18.671Z,3.30
2023-02-05T03:13:48.246Z,3.40
2023-02-05T03:16:22.405Z,3.50
2023-02-05T03:18:52.892Z,3.50
2023-02-05T03:21:29.531Z,3.60
2023-02-05T03:23:58.369Z,3.60
2023-02-05T03:26:32.787Z,3.60
2023-02-05T03:29:15.041Z,3.40
2023-02-05T03:32:03.886Z,3.30
2023-02-05T03:34:52.558Z,3.40
2023-02-05T03:37:43.664Z,3.40
2023-02-05T03:40:28.391Z,3.40
2023-02-05T03:43:13.164Z,3.60
2023-02-05T03:45:49.589Z,3.70
2023-02-05T03:48:43.690Z,3.90
2023-02-05T03:51:30.464Z,3.90
2023-02-05T03:54:14.251Z,3.80
2023-02-05T03:56:54.461Z,3.80
2023-02-05T03:59:26.235Z,3.90
2023-02-05T04:01:56.005Z,4.00
2023-02-05T04:04:28.183Z,4.10
2023-02-05T04:06:59.003Z,4.20
2023-02-05T04:09:45.902Z,4.20
2023-02-05T04:12:16.647Z,4.20
2023-02-05T04:15:09.289Z,4.20
2023-02-05T04:17:40.422Z,4.30
2023-02-05T04:20:12.992Z,4.40
2023-02-05T04:22:41.565Z,4.30
2023-02-05T04:25:10.040Z,4.30
2023-02-05T04:27:39.505Z,4.40
2023-02-05T04:30:10.514Z,4.40
2023-02-05T04:32:43.469Z,4.40
2023-02-05T04:35:16.791Z,4.30
2023-02-05T04:37:46.016Z,4.20
2023-02-05T04:40:36.527Z,4.30
2023-02-05T04:43:07.360Z,4.30
2023-02-05T04:45:37.438Z,4.30
2023-02-05T04:48:07.305Z,4.20
2023-02-05T04:50:39.879Z,4.10
2023-02-05T04:56:09.277Z,4.00
2023-02-05T04:58:38.313Z,4.10
2023-02-05T05:01:13.117Z,4.20
2023-02-05T05:04:01.942Z,4.20
2023-02-05T05:06:31.430Z,4.30
2023-02-05T05:11:46.954Z,4.40
2023-02-05T05:14:15.065Z,4.40
2023-02-05T05:16:44.273Z,4.40
2023-02-05T05:19:12.918Z,4.30
2023-02-05T05:21:43.692Z,4.40
2023-02-05T05:24:11.901Z,4.90
2023-02-05T05:26:43.810Z,4.40
2023-02-05T05:29:12.663Z,4.40
2023-02-05T05:31:42.343Z,4.50
2023-02-05T05:34:10.496Z,4.50
2023-02-05T05:36:40.254Z,4.50
2023-02-05T05:39:27.499Z,4.30
2023-02-05T05:42:28.419Z,4.30
2023-02-05T05:44:56.618Z,4.40
2023-02-05T05:47:25.015Z,4.50
2023-02-05T05:49:53.625Z,4.50
2023-02-05T05:52:22.277Z,4.40
2023-02-05T05:54:51.704Z,4.40
2023-02-05T05:57:23.121Z,4.40
2023-02-05T05:59:52.273Z,4.50
2023-02-05T06:02:20.456Z,4.50
2023-02-05T06:04:51.732Z,4.60
2023-02-05T06:07:19.941Z,4.60
2023-02-05T06:09:48.402Z,4.60
2023-02-05T06:12:18.921Z,4.70
2023-02-05T06:14:47.423Z,4.70
2023-02-05T06:17:16.399Z,4.70
2023-02-05T06:19:45.042Z,4.70
2023-02-05T06:22:13.514Z,4.70
2023-02-05T06:24:42.587Z,4.60
2023-02-05T06:27:10.731Z,4.70
2023-02-05T06:29:40.907Z,4.70
2023-02-05T06:32:09.012Z,4.80
2023-02-05T06:34:37.632Z,4.80
2023-02-05T06:37:05.808Z,4.90
2023-02-05T06:39:34.272Z,5.00
2023-02-05T06:42:02.801Z,5.00
2023-02-05T06:44:54.196Z,5.00
2023-02-05T06:47:22.316Z,5.00
2023-02-05T06:49:51.484Z,5.10
2023-02-05T06:52:19.829Z,5.20
2023-02-05T06:54:48.054Z,5.20
2023-02-05T06:57:16.189Z,5.20
2023-02-05T06:59:45.117Z,5.30
2023-02-05T07:02:33.702Z,5.40
2023-02-05T07:05:02.058Z,5.50
2023-02-05T07:07:30.147Z,5.60
2023-02-05T07:09:58.669Z,5.60
2023-02-05T07:12:26.894Z,5.70
2023-02-05T07:14:56.305Z,5.70
2023-02-05T07:17:45.475Z,5.70
2023-02-05T07:20:14.104Z,5.70
2023-02-05T07:22:42.388Z,5.70
2023-02-05T07:25:10.517Z,5.80
2023-02-05T07:27:38.652Z,5.70
2023-02-05T07:30:08.970Z,5.70
2023-02-05T07:32:37.130Z,5.70
2023-02-05T07:35:07.575Z,5.60
2023-02-05T07:37:39.478Z,5.60
2023-02-05T07:40:12.436Z,5.60
2023-02-05T07:42:41.121Z,5.50
2023-02-05T07:45:11.403Z,5.40
2023-02-05T07:47:40.164Z,5.40
2023-02-05T07:50:12.237Z,5.40
2023-02-05T07:52:40.361Z,5.40
2023-02-05T07:55:10.403Z,5.30
2023-02-05T07:57:38.656Z,5.40
2023-02-05T08:00:09.894Z,5.40
2023-02-05T08:02:41.026Z,5.40
2023-02-05T08:05:10.700Z,5.50
2023-02-05T08:07:41.199Z,5.50
2023-02-05T08:10:13.079Z,5.40
2023-02-05T08:12:41.376Z,5.40
2023-02-05T08:15:10.728Z,5.30
2023-02-05T08:17:39.631Z,5.30
2023-02-05T08:20:11.471Z,5.30
2023-02-05T08:22:42.638Z,5.30
2023-02-05T08:25:14.107Z,5.30
2023-02-05T08:27:44.403Z,5.20
2023-02-05T08:30:16.700Z,5.20
2023-02-05T08:32:49.898Z,5.20
2023-02-05T08:35:20.034Z,5.20
2023-02-05T08:37:48.585Z,5.30
2023-02-05T08:40:17.073Z,5.30
2023-02-05T08:42:46.678Z,5.30
2023-02-05T08:45:15.731Z,5.30
2023-02-05T08:47:44.271Z,5.30
2023-02-05T08:50:13.332Z,5.30
2023-02-05T08:52:43.398Z,5.20
2023-02-05T08:55:12.219Z,5.30
2023-02-05T08:57:41.686Z,5.30
2023-02-05T09:00:11.935Z,5.30
2023-02-05T09:02:42.683Z,5.30
2023-02-05T09:05:29.710Z,5.40
2023-02-05T09:07:59.662Z,5.40
2023-02-05T09:10:27.802Z,5.50
2023-02-05T09:15:48.271Z,5.60
2023-02-05T09:18:17.877Z,5.60
2023-02-05T09:20:49.814Z,5.60
2023-02-05T09:23:22.280Z,5.80
2023-02-05T09:25:50.611Z,5.80
2023-02-05T09:28:19.321Z,5.90
2023-02-05T09:30:48.305Z,5.80
2023-02-05T09:33:16.690Z,5.90
2023-02-05T09:35:46.084Z,5.90
2023-02-05T09:38:17.819Z,5.90
2023-02-05T09:41:01.208Z,5.90
2023-02-05T09:43:47.187Z,5.90
2023-02-05T09:46:27.068Z,5.90
2023-02-05T09:49:02.972Z,6.30
2023-02-05T09:51:37.317Z,5.90
2023-02-05T09:54:12.838Z,5.90
2023-02-05T09:56:45.032Z,5.90
2023-02-05T09:59:20.196Z,6.00
2023-02-05T10:01:54.272Z,6.00
2023-02-05T10:04:25.096Z,6.10
2023-02-05T10:07:25.782Z,6.10
2023-02-05T10:10:24.981Z,6.10
2023-02-05T10:13:30.532Z,6.00
2023-02-05T10:16:41.049Z,6.00
2023-02-05T10:19:35.102Z,6.00
2023-02-05T10:22:16.850Z,6.00
2023-02-05T10:25:04.757Z,6.00
2023-02-05T10:27:47.954Z,6.10
2023-02-05T10:30:29.877Z,6.20
2023-02-05T10:33:00.611Z,6.20
2023-02-05T10:35:45.680Z,6.30
2023-02-05T10:38:23.957Z,6.50
2023-02-05T10:41:00.231Z,6.40
2023-02-05T10:43:37.713Z,6.50
2023-02-05T10:46:15.449Z,6.50
2023-02-05T10:48:51.348Z,6.50
2023-02-05T10:51:33.625Z,6.50
2023-02-05T10:54:02.976Z,6.50
2023-02-05T10:56:32.272Z,6.50
2023-02-05T10:59:04.809Z,6.50
2023-02-05T11:01:40.508Z,6.50
2023-02-05T11:04:16.207Z,6.50
2023-02-05T11:06:48.473Z,6.50
2023-02-05T11:09:35.505Z,6.70
2023-02-05T11:12:09.742Z,6.40
2023-02-05T11:14:42.702Z,6.20
2023-02-05T11:17:24.519Z,6.10
2023-02-05T11:19:56.126Z,6.10
2023-02-05T11:22:31.709Z,6.10
2023-02-05T11:25:15.382Z,6.00
2023-02-05T11:27:53.505Z,6.00
2023-02-05T11:30:49.945Z,6.20
2023-02-05T11:33:32.382Z,6.20
2023-02-05T11:36:04.394Z,6.20
2023-02-05T11:38:43.728Z,6.20
2023-02-05T11:41:16.822Z,6.90
2023-02-05T11:43:52.192Z,6.20
2023-02-05T11:46:24.184Z,6.00
2023-02-05T11:49:00.404Z,5.80
2023-02-05T11:51:41.562Z,6.10
2023-02-05T11:54:21.990Z,6.10
2023-02-05T11:57:34.638Z,6.10
2023-02-05T12:00:21.852Z,6.20
2023-02-05T12:02:54.036Z,6.20
2023-02-05T12:05:32.211Z,6.10
2023-02-05T12:08:09.431Z,6.10
2023-02-05T12:10:52.558Z,6.00
2023-02-05T12:13:45.488Z,6.10
2023-02-05T12:16:34.672Z,6.00
2023-02-05T12:19:33.560Z,6.00
2023-02-05T12:22:17.878Z,6.00
2023-02-05T12:25:15.428Z,5.90
2023-02-05T12:28:04.458Z,5.90
2023-02-05T12:30:54.569Z,5.90
2023-02-05T12:33:50.040Z,5.80
2023-02-05T12:36:43.283Z,5.80
2023-02-05T12:39:26.079Z,5.90
2023-02-05T12:42:06.776Z,5.90
2023-02-05T12:44:56.426Z,6.00
2023-02-05T12:47:49.705Z,5.90
2023-02-05T12:50:47.394Z,5.90
2023-02-05T12:53:39.043Z,5.90
2023-02-05T12:56:43.010Z,5.90
2023-02-05T12:59:20.001Z,5.90
2023-02-05T13:01:55.755Z,5.80
2023-02-05T13:04:35.919Z,5.80
2023-02-05T13:07:14.273Z,5.70
2023-02-05T13:09:50.903Z,5.60
2023-02-05T13:12:27.462Z,5.70
2023-02-05T13:15:08.208Z,5.60
2023-02-05T13:17:45.306Z,5.50
2023-02-05T13:20:46.987Z,5.50
2023-02-05T13:23:34.597Z,5.40
2023-02-05T13:26:24.003Z,5.50
2023-02-05T13:29:02.807Z,5.60
2023-02-05T13:31:39.273Z,5.70
2023-02-05T13:34:11.295Z,5.70
2023-02-05T13:37:51.506Z,5.60
2023-02-05T13:40:56.319Z,5.60
2023-02-05T13:44:21.762Z,5.50
2023-02-05T13:47:23.657Z,5.60
2023-02-05T13:50:22.105Z,5.60
2023-02-05T13:53:19.343Z,5.50
2023-02-05T13:56:34.396Z,5.40
2023-02-05T13:59:13.279Z,5.30
2023-02-05T14:01:46.406Z,5.40
2023-02-05T14:04:25.235Z,5.30
2023-02-05T14:07:04.397Z,5.30
2023-02-05T14:09:38.840Z,5.20
2023-02-05T14:12:11.775Z,5.10
2023-02-05T14:14:42.112Z,5.10
2023-02-05T14:17:55.746Z,5.10
2023-02-05T14:20:39.530Z,5.00
2023-02-05T14:23:18.278Z,5.00
2023-02-05T14:26:11.461Z,5.00
2023-02-05T14:28:52.749Z,5.00
2023-02-05T14:31:55.529Z,5.10
2023-02-05T14:34:49.321Z,5.10
2023-02-05T14:37:34.350Z,5.10
2023-02-05T14:40:23.754Z,5.10
2023-02-05T14:43:09.622Z,5.10
2023-02-05T14:45:49.818Z,5.10
2023-02-05T14:48:26.526Z,5.10
2023-02-05T14:51:08.976Z,5.10
2023-02-05T14:53:39.907Z,5.20
2023-02-05T14:56:08.893Z,5.20
2023-02-05T14:58:44.299Z,5.20
2023-02-05T15:04:42.819Z,5.40
2023-02-05T15:07:16.848Z,5.40
2023-02-05T15:09:53.320Z,5.40
2023-02-05T15:12:52.028Z,5.40
2023-02-05T15:15:33.717Z,5.40
2023-02-05T15:18:25.240Z,5.40
2023-02-05T15:20:57.476Z,5.40
2023-02-05T15:23:36.150Z,5.40
2023-02-05T15:26:08.113Z,5.90
2023-02-05T15:28:48.594Z,5.40
2023-02-05T15:31:27.642Z,5.40
2023-02-05T15:34:31.982Z,5.50
2023-02-05T15:37:07.643Z,5.50
2023-02-05T15:39:48.782Z,5.50
2023-02-05T15:42:22.126Z,5.50
2023-02-05T15:44:50.735Z,5.50
2023-02-05T15:47:23.099Z,5.50
2023-02-05T15:49:57.027Z,5.50
2023-02-05T15:52:32.002Z,5.50
2023-02-05T15:55:13.094Z,5.50
2023-02-05T15:57:41.527Z,5.40
2023-02-05T16:00:12.267Z,5.40
2023-02-05T16:02:46.072Z,5.40
2023-02-05T16:05:22.255Z,5.50
2023-02-05T16:07:55.493Z,5.40
2023-02-05T16:10:27.663Z,5.50
2023-02-05T16:13:00.928Z,5.50
2023-02-05T16:15:38.068Z,5.50
2023-02-05T16:18:18.472Z,5.50
2023-02-05T16:20:53.909Z,5.40
2023-02-05T16:23:32.330Z,5.40
2023-02-05T16:26:07.432Z,5.40
2023-02-05T16:28:46.579Z,5.40
2023-02-05T16:31:20.557Z,5.40
2023-02-05T16:33:54.683Z,5.40
2023-02-05T16:36:26.756Z,5.50
2023-02-05T16:39:00.438Z,5.40
2023-02-05T16:41:34.932Z,5.40
2023-02-05T16:44:07.526Z,5.40
2023-02-05T16:46:37.386Z,5.60
2023-02-05T16:49:31.081Z,5.40
2023-02-05T16:51:59.899Z,5.30
2023-02-05T16:54:41.851Z,5.30
2023-02-05T16:57:17.030Z,5.30
2023-02-05T16:59:54.411Z,5.10
2023-02-05T17:02:32.222Z,5.10
2023-02-05T17:05:04.566Z,5.10
2023-02-05T17:07:33.868Z,5.20
2023-02-05T17:10:19.208Z,5.20
2023-02-05T17:12:56.735Z,5.20
2023-02-05T17:15:40.939Z,5.10
2023-02-05T17:18:28.825Z,5.20
2023-02-05T17:21:27.757Z,5.20
2023-02-05T17:23:59.837Z,5.20
2023-02-05T17:26:37.933Z,5.30
2023-02-05T17:29:15.653Z,5.30
2023-02-05T17:31:44.378Z,5.20
2023-02-05T17:34:13.708Z,5.10
2023-02-05T17:36:42.237Z,5.20
2023-02-05T17:39:11.147Z,5.20
2023-02-05T17:42:00.062Z,5.20
2023-02-05T17:44:28.651Z,5.20
2023-02-05T17:47:00.689Z,5.20
2023-02-05T17:49:29.016Z,5.20
2023-02-05T17:51:57.592Z,5.30
2023-02-05T17:54:28.392Z,5.30
2023-02-05T17:57:08.688Z,5.30
2023-02-05T17:59:37.601Z,5.40
2023-02-05T18:02:07.084Z,5.30
2023-02-05T18:07:32.989Z,5.30
2023-02-05T18:10:02.464Z,5.30
2023-02-05T18:12:31.968Z,5.30
2023-02-05T18:15:00.558Z,5.30
2023-02-05T18:17:29.002Z,5.30
2023-02-05T18:19:57.164Z,5.30
2023-02-05T18:22:26.970Z,5.40
2023-02-05T18:24:55.849Z,5.30
2023-02-05T18:27:26.294Z,5.30
2023-02-05T18:29:55.926Z,5.40
2023-02-05T18:32:27.586Z,5.40
2023-02-05T18:34:57.167Z,5.40
2023-02-05T18:37:26.552Z,5.50
2023-02-05T18:39:55.242Z,5.60
2023-02-05T18:42:25.262Z,5.50
2023-02-05T18:44:55.148Z,5.40
2023-02-05T18:47:23.415Z,5.40
2023-02-05T18:49:52.190Z,5.30
2023-02-05T18:52:23.118Z,5.30
2023-02-05T18:54:51.320Z,5.30
2023-02-05T18:57:19.996Z,5.30
2023-02-05T18:59:48.888Z,5.40
2023-02-05T19:02:18.510Z,6.00
2023-02-05T19:04:52.270Z,5.40
2023-02-05T19:07:21.447Z,5.40
2023-02-05T19:09:50.894Z,5.30
2023-02-05T19:12:19.312Z,6.00
2023-02-05T19:14:49.442Z,5.20
2023-02-05T19:17:20.489Z,5.20
2023-02-05T19:19:51.856Z,5.20
2023-02-05T19:22:20.221Z,5.10
2023-02-05T19:24:48.394Z,5.20
2023-02-05T19:27:18.664Z,5.20
2023-02-05T19:29:46.982Z,5.20
2023-02-05T19:32:15.355Z,5.20
2023-02-05T19:34:46.631Z,5.20
2023-02-05T19:37:14.811Z,5.20
2023-02-05T19:39:43.007Z,5.20
2023-02-05T19:42:11.469Z,5.20
2023-02-05T19:44:39.527Z,5.20
2023-02-05T19:47:09.962Z,5.20
2023-02-05T19:49:38.466Z,5.20
2023-02-05T19:52:09.535Z,5.20
2023-02-05T19:54:37.951Z,5.20
2023-02-05T19:57:06.458Z,5.30
2023-02-05T19:59:34.569Z,5.20
2023-02-05T20:02:04.086Z,5.20
2023-02-05T20:04:32.274Z,5.20
2023-02-05T20:07:01.465Z,5.10
2023-02-05T20:09:32.132Z,5.10
2023-02-05T20:12:01.042Z,5.00
2023-02-05T20:14:30.244Z,5.00
2023-02-05T20:16:59.331Z,5.00
2023-02-05T20:19:27.826Z,5.00
2023-02-05T20:21:56.198Z,5.00
2023-02-05T20:24:25.354Z,4.90
2023-02-05T20:26:56.872Z,4.80
2023-02-05T20:29:43.064Z,4.80
2023-02-05T20:32:11.557Z,4.90
2023-02-05T20:34:45.547Z,4.90
2023-02-05T20:37:13.752Z,5.00
2023-02-05T20:39:45.594Z,5.00
2023-02-05T20:42:16.627Z,5.70
2023-02-05T20:44:45.219Z,5.00
2023-02-05T20:47:16.368Z,5.00
2023-02-05T20:49:46.526Z,5.00
2023-02-05T20:52:15.249Z,4.90
2023-02-05T20:54:43.578Z,4.90
2023-02-05T20:57:11.964Z,4.80
2023-02-05T20:59:42.381Z,4.70
2023-02-05T21:02:13.610Z,4.70
2023-02-05T21:04:42.050Z,4.70
2023-02-05T21:07:10.597Z,4.70
2023-02-05T21:09:38.661Z,4.70
2023-02-05T21:12:08.081Z,4.70
2023-02-05T21:14:36.275Z,4.60
2023-02-05T21:17:10.496Z,4.60
2023-02-05T21:19:43.462Z,4.60
2023-02-05T21:22:13.209Z,4.50
2023-02-05T21:24:41.581Z,4.50
2023-02-05T21:27:10.571Z,4.60
2023-02-05T21:29:39.216Z,4.60
2023-02-05T21:32:09.065Z,4.50
2023-02-05T21:34:37.307Z,4.40
2023-02-05T21:37:06.298Z,4.40
2023-02-05T21:39:36.396Z,4.40
2023-02-05T21:42:04.762Z,4.30
2023-02-05T21:44:33.372Z,4.20
2023-02-05T21:47:01.485Z,4.30
2023-02-05T21:49:32.053Z,4.30
2023-02-05T21:52:00.068Z,4.30
2023-02-05T21:54:28.340Z,4.30
2023-02-05T21:56:57.488Z,4.30
2023-02-05T21:59:25.767Z,4.20
2023-02-05T22:01:54.417Z,4.20
2023-02-05T22:04:23.191Z,4.20
2023-02-05T22:06:52.993Z,4.20
2023-02-05T22:09:24.642Z,4.20
2023-02-05T22:11:53.090Z,4.20
2023-02-05T22:14:21.614Z,4.30
2023-02-05T22:16:49.969Z,4.20
2023-02-05T22:19:18.353Z,4.30
2023-02-05T22:21:46.728Z,4.30
2023-02-05T22:24:19.573Z,4.20
2023-02-05T22:26:48.630Z,4.30
2023-02-05T22:29:20.405Z,4.30
2023-02-05T22:31:54.249Z,4.30
2023-02-05T22:34:23.768Z,4.20
2023-02-05T22:36:54.952Z,4.10
2023-02-05T22:39:26.775Z,4.10
2023-02-05T22:41:55.318Z,4.10
2023-02-05T22:44:25.653Z,4.20
2023-02-05T22:46:53.886Z,4.20
2023-02-05T22:49:21.942Z,4.30
2023-02-05T22:51:54.148Z,4.20
2023-02-05T22:54:22.552Z,4.20
2023-02-05T22:56:52.061Z,4.10
2023-02-05T22:59:20.091Z,4.10
2023-02-05T23:01:48.920Z,4.10
2023-02-05T23:04:16.990Z,4.10
2023-02-05T23:06:45.204Z,4.10
2023-02-05T23:09:19.622Z,4.20
2023-02-05T23:11:48.436Z,4.00
2023-02-05T23:14:18.939Z,4.00
2023-02-05T23:16:49.392Z,3.90
2023-02-05T23:19:22.462Z,3.80
2023-02-05T23:21:51.319Z,3.80
2023-02-05T23:24:21.280Z,3.90
2023-02-05T23:26:54.148Z,3.90
2023-02-05T23:29:23.962Z,3.90
2023-02-05T23:31:52.259Z,3.90
2023-02-05T23:34:21.084Z,3.90
2023-02-05T23:36:49.425Z,3.90
2023-02-05T23:39:18.853Z,3.90
2023-02-05T23:41:50.060Z,3.90
2023-02-05T23:44:25.290Z,3.90
2023-02-05T23:46:54.546Z,4.00
2023-02-05T23:49:23.199Z,3.90
2023-02-05T23:51:52.726Z,3.90
2023-02-05T23:54:22.028Z,3.80
2023-02-05T23:56:50.513Z,3.90
2023-02-05T23:59:18.877Z,3.80
